• Join FlightAware (Why Join?)
  • Login
  • US Flag 
05:21PM EDT


 

Airport Tracker/Info


-or-


 

Live Flight TrackerFlight Track Log ✈ GJS6221 ✈ 19-Jun-2013 ✈ CYUL - KLGA

Flight Track Log - Related Links

Times and Time Zones

All times are in EDT time to prevent confusion due to time zone crossing. See the GJS6221 flight status page for this flight to view local times or setup timezone preferences in your user account.

Time Position Orientation Groundspeed Altitude Reporting Facility
EDT Latitude Longitude Course Direction KTS MPH feet Rate Location/Type
07:16AM 45.4667 -73.7167 203° Southwest 80 92 700  Level Montreal Center
07:17AM 45.5000 -73.6500 54° Northeast 190 219 3,200 2,640 Climbing Montreal Center
07:18AM 45.4833 -73.5833 110° East 250 288 6,000 2,700 Climbing Montreal Center
07:19AM 45.4000 -73.6000 188° South 290 334 8,600 2,700 Climbing Montreal Center
07:20AM 45.3333 -73.6500 208° Southwest 310 357 11,500 2,760 Climbing Montreal Center
07:21AM 45.2500 -73.7000 203° Southwest 330 380 14,200 2,760 Climbing Montreal Center
07:22AM 44.8395 -74.0618 203° Southwest  Level FlightAware Approximate
07:22AM 45.1667 -73.7833 215° Southwest 330 380 17,100  Level Montreal Center
07:23AM 45.0833 -73.8500 209° Southwest 340 391 19,300 2,220 Climbing Montreal Center
07:24AM 45.0000 -73.9000 203° Southwest 350 403 21,600 2,280 Climbing Montreal Center
07:25AM 44.9000 -73.9833 211° Southwest 350 403 23,900 2,100 Climbing Montreal Center
07:26AM 44.8167 -74.0500 210° Southwest 360 414 25,900 1,680 Climbing Montreal Center
07:27AM 44.7167 -74.1333 211° Southwest 370 426 27,300 1,320 Climbing Montreal Center
07:28AM 44.6167 -74.1333 180° South 400 460 28,600 1,200 Climbing Montreal Center
07:29AM 44.5000 -74.0833 163° South 420 483 29,700 840 Climbing Montreal Center
07:30AM 44.4722 -74.0983 201° Southwest 404 465 30,000 180 Climbing Boston Center
07:31AM 44.3331 -74.0769 174° South 445 512 30,000  Level Boston Center
07:32AM 44.2061 -74.0592 174° South 456 525 30,000  Level Boston Center
07:33AM 44.0836 -74.0356 172° South 456 525 30,000  Level Boston Center
07:34AM 43.9547 -74.0175 174° South 466 536 30,000  Level Boston Center
07:35AM 43.8111 -73.9908 172° South 474 545 30,000  Level Boston Center
07:36AM 43.6847 -73.9417 164° South 474 545 30,000  Level Boston Center
07:37AM 43.5708 -73.8814 159° South 479 551 30,000 -240 Level Boston Center
07:38AM 43.4447 -73.8100 158° South 484 557 29,600 -900 Descending Boston Center
07:39AM 43.3081 -73.7356 158° South 484 557 28,300 -1,080 Descending Boston Center
07:40AM 43.1978 -73.7161 173° South 457 526 27,500 -1,020 Descending Boston Center
07:41AM 43.0578 -73.7472 189° South 466 536 26,300 -1,140 Descending Boston Center
07:42AM 42.9325 -73.7700 188° South 466 536 25,300 -1,020 Descending Boston Center
07:43AM 42.8069 -73.7956 188° South 466 536 24,300 -1,020 Descending Boston Center
07:44AM 42.6819 -73.7900 178° South 461 531 23,300 -900 Descending Boston Center
07:45AM 42.5697 -73.7708 173° South 461 531 22,500 -900 Descending Boston Center
07:46AM 42.4469 -73.7483 172° South 453 521 21,500 -1,140 Descending Boston Center
07:47AM 42.3244 -73.7206 170° South 453 521 20,300 -1,380 Descending Boston Center
07:48AM 42.1953 -73.7181 179° South 426 490 18,800 -1,200 Descending Boston Center
07:49AM 42.0950 -73.7272 184° South 413 475 18,000 -480 Descending Boston Center
07:50AM 41.9719 -73.7386 184° South 402 463 17,900 -540 Descending Boston Center
07:51AM 41.8614 -73.7503 184° South 402 463 17,000 -960 Descending Boston Center
07:52AM 41.7550 -73.7619 185° South 396 456 16,000 -1,500 Descending Boston Center
07:53AM 41.6486 -73.7708 184° South 391 450 14,000 -2,280 Descending Boston Center
07:54AM 41.5333 -73.7833 185° South 354 407 11,300 -1,800 Descending New York TRACON
07:55AM 41.4500 -73.7833 180° South 307 353 10,300 -1,020 Descending New York TRACON
07:56AM 41.3667 -73.8000 189° South 300 345 9,300 -900 Descending New York TRACON
07:57AM 41.3000 -73.7500 151° Southeast 298 343 8,500 -900 Descending New York TRACON
07:58AM 41.2167 -73.7000 156° South 301 346 7,500 -1,020 Descending New York TRACON
07:59AM 41.1500 -73.6333 143° Southeast 307 353 6,500 -1,080 Descending New York TRACON
08:00AM 41.0667 -73.6167 171° South 299 344 5,400 -1,080 Descending New York TRACON
08:01AM 41.0000 -73.6000 169° South 286 329 4,400 -720 Descending New York TRACON
08:02AM 40.9167 -73.6333 197° South 282 325 4,000 -600 Descending New York TRACON
08:03AM 40.8500 -73.6833 210° Southwest 276 318 3,300 -600 Descending New York TRACON
08:04AM 40.8000 -73.7000 194° South 216 249 2,800 -600 Descending New York TRACON
08:05AM 40.7333 -73.7167 191° South 190 219 2,200 -360 Descending New York TRACON
08:06AM 40.7167 -73.7667 246° West 176 203 2,100 -300 Descending New York TRACON
08:07AM 40.7167 -73.8167 270° West 145 167 1,600 -720 Descending New York TRACON
08:08AM 40.7500 -73.8333 339° North 122 140 700 -900 Descending New York TRACON
08:10AM 40.7667 -73.8667 180° South  Level FlightAware Approximate
08:17AM 40.7772 -73.8726 180° South  Level Estimated